createdAt,value
2022-10-19T00:01:23.216Z,101701.44
2022-10-19T00:03:54.771Z,101697.78
2022-10-19T00:06:26.628Z,101690.50
2022-10-19T00:08:56.629Z,101690.50
2022-10-19T00:11:25.754Z,101679.19
2022-10-19T00:13:54.610Z,101674.81
2022-10-19T00:16:26.162Z,101665.72
2022-10-19T00:18:57.786Z,101663.47
2022-10-19T00:21:26.699Z,101660.84
2022-10-19T00:23:55.107Z,101664.47
2022-10-19T00:26:23.766Z,101657.03
2022-10-19T00:28:54.639Z,101657.47
2022-10-19T00:31:25.253Z,101651.03
2022-10-19T00:33:54.470Z,101649.41
2022-10-19T00:36:23.513Z,101640.63
2022-10-19T00:38:52.588Z,101635.97
2022-10-19T00:41:22.395Z,101640.78
2022-10-19T00:44:02.362Z,101629.28
2022-10-19T00:46:34.995Z,101627.69
2022-10-19T00:49:10.015Z,101619.59
2022-10-19T00:51:43.496Z,101616.75
2022-10-19T00:54:13.323Z,101616.31
2022-10-19T00:56:44.293Z,101621.13
2022-10-19T00:59:16.167Z,101616.25
2022-10-19T01:01:47.310Z,101620.28
2022-10-19T01:04:16.233Z,101620.66
2022-10-19T01:06:44.871Z,101617.81
2022-10-19T01:09:13.366Z,101616.38
2022-10-19T01:11:52.961Z,101614.56
2022-10-19T01:14:37.274Z,101611.50
2022-10-19T01:17:16.142Z,101611.50
2022-10-19T01:20:05.319Z,101608.06
2022-10-19T01:22:57.708Z,101606.47
2022-10-19T01:25:40.271Z,101608.06
2022-10-19T01:28:26.619Z,101604.63
2022-10-19T01:31:03.177Z,101602.00
2022-10-19T01:33:44.629Z,101597.78
2022-10-19T01:36:22.939Z,101587.69
2022-10-19T01:38:59.916Z,101586.88
2022-10-19T01:41:37.054Z,101572.16
2022-10-19T01:44:15.051Z,101575.22
2022-10-19T01:46:48.592Z,101559.88
2022-10-19T01:49:21.096Z,101560.91
2022-10-19T01:51:55.923Z,101563.75
2022-10-19T01:54:27.691Z,101554.50
2022-10-19T01:57:00.004Z,101547.63
2022-10-19T01:59:28.986Z,101547.63
2022-10-19T02:01:59.296Z,101537.13
2022-10-19T02:04:28.093Z,101541.16
2022-10-19T02:06:57.112Z,101543.56
2022-10-19T02:09:25.542Z,101541.50
2022-10-19T02:11:58.064Z,101538.44
2022-10-19T02:14:31.350Z,101535.38
2022-10-19T02:17:04.270Z,101529.50
2022-10-19T02:19:33.813Z,101527.47
2022-10-19T02:22:02.675Z,101526.44
2022-10-19T02:24:31.079Z,101522.00
2022-10-19T02:27:00.692Z,101522.81
2022-10-19T02:29:29.839Z,101521.78
2022-10-19T02:31:58.192Z,101524.09
2022-10-19T02:34:28.432Z,101522.88
2022-10-19T02:36:57.208Z,101523.47
2022-10-19T02:39:26.031Z,101516.16
2022-10-19T02:41:59.682Z,101512.16
2022-10-19T02:44:32.537Z,101513.38
2022-10-19T02:47:07.731Z,101506.50
2022-10-19T02:49:39.357Z,101504.09
2022-10-19T02:52:09.982Z,101495.66
2022-10-19T02:54:39.527Z,101497.47
2022-10-19T02:57:17.446Z,101491.84
2022-10-19T02:59:46.011Z,101495.28
2022-10-19T03:02:14.903Z,101484.78
2022-10-19T03:04:45.359Z,101485.81
2022-10-19T03:07:16.130Z,101474.50
2022-10-19T03:09:45.199Z,101475.28
2022-10-19T03:12:14.174Z,101469.25
2022-10-19T03:14:43.021Z,101472.91
2022-10-19T03:17:12.022Z,101475.28
2022-10-19T03:19:41.139Z,101470.13
2022-10-19T03:22:10.940Z,101473.69
2022-10-19T03:24:39.402Z,101471.22
2022-10-19T03:27:07.801Z,101468.72
2022-10-19T03:29:36.224Z,101464.69
2022-10-19T03:32:04.729Z,101451.09
2022-10-19T03:34:33.086Z,101454.91
2022-10-19T03:37:01.544Z,101451.84
2022-10-19T03:39:31.317Z,101449.00
2022-10-19T03:41:59.787Z,101450.59
2022-10-19T03:44:28.236Z,101456.66
2022-10-19T03:46:56.758Z,101456.44
2022-10-19T03:49:25.188Z,101457.81
2022-10-19T03:51:53.626Z,101446.75
2022-10-19T03:54:25.013Z,101440.31
2022-10-19T03:56:57.175Z,101447.19
2022-10-19T03:59:25.635Z,101441.94
2022-10-19T04:01:54.116Z,101431.88
2022-10-19T04:04:22.582Z,101430.22
2022-10-19T04:06:53.999Z,101427.03
2022-10-19T04:09:24.219Z,101427.19
2022-10-19T04:11:52.944Z,101416.47
2022-10-19T04:14:32.721Z,101408.59
2022-10-19T04:17:02.242Z,101413.03
2022-10-19T04:19:30.774Z,101413.03
2022-10-19T04:21:59.594Z,101408.38
2022-10-19T04:24:28.146Z,101409.53
2022-10-19T04:26:57.630Z,101408.50
2022-10-19T04:29:29.764Z,101402.22
2022-10-19T04:31:59.824Z,101406.22
2022-10-19T04:34:28.362Z,101405.22
2022-10-19T04:36:59.588Z,101393.53
2022-10-19T04:39:28.335Z,101392.16
2022-10-19T04:41:56.704Z,101396.63
2022-10-19T04:44:25.323Z,101392.97
2022-10-19T04:46:55.064Z,101392.59
2022-10-19T04:49:23.542Z,101391.00
2022-10-19T04:51:52.128Z,101387.81
2022-10-19T04:54:20.545Z,101386.63
2022-10-19T04:56:48.922Z,101385.00
2022-10-19T04:59:17.710Z,101389.69
2022-10-19T05:01:47.298Z,101377.22
2022-10-19T05:04:17.318Z,101375.84
2022-10-19T05:06:45.733Z,101376.84
2022-10-19T05:09:14.249Z,101379.91
2022-10-19T05:11:42.645Z,101373.06
2022-10-19T05:14:11.086Z,101369.06
2022-10-19T05:16:39.498Z,101369.50
2022-10-19T05:19:07.981Z,101371.75
2022-10-19T05:21:37.842Z,101376.44
2022-10-19T05:24:06.618Z,101375.84
2022-10-19T05:26:35.065Z,101366.38
2022-10-19T05:29:04.685Z,101374.09
2022-10-19T05:31:35.270Z,101365.22
2022-10-19T05:34:05.118Z,101372.50
2022-10-19T05:39:07.584Z,101370.69
2022-10-19T05:41:36.475Z,101359.38
2022-10-19T05:44:06.096Z,101372.06
2022-10-19T05:46:35.237Z,101371.19
2022-10-19T05:49:03.630Z,101362.50
2022-10-19T05:51:32.760Z,101355.22
2022-10-19T05:54:01.189Z,101366.50
2022-10-19T05:56:32.394Z,101359.44
2022-10-19T05:59:03.025Z,101363.00
2022-10-19T06:01:32.751Z,101360.94
2022-10-19T06:04:02.181Z,101354.31
2022-10-19T06:06:32.109Z,101357.16
2022-10-19T06:09:01.435Z,101362.63
2022-10-19T06:11:34.053Z,101357.38
2022-10-19T06:14:04.246Z,101352.13
2022-10-19T06:16:33.784Z,101348.13
2022-10-19T06:19:02.558Z,101351.78
2022-10-19T06:21:32.548Z,101339.91
2022-10-19T06:24:02.977Z,101341.06
2022-10-19T06:26:34.747Z,101345.94
2022-10-19T06:29:04.260Z,101334.88
2022-10-19T06:31:34.731Z,101341.59
2022-10-19T06:34:03.431Z,101331.91
2022-10-19T06:36:33.142Z,101333.72
2022-10-19T06:39:02.878Z,101321.63
2022-10-19T06:41:34.321Z,101334.97
2022-10-19T06:44:19.471Z,101326.50
2022-10-19T06:46:48.049Z,101323.09
2022-10-19T06:49:16.413Z,101322.06
2022-10-19T06:51:44.899Z,101318.63
2022-10-19T06:54:13.288Z,101316.81
2022-10-19T06:56:43.234Z,101323.88
2022-10-19T06:59:14.780Z,101316.81
2022-10-19T07:01:43.553Z,101314.75
2022-10-19T07:04:11.935Z,101315.78
2022-10-19T07:06:40.611Z,101318.41
2022-10-19T07:09:09.064Z,101303.69
2022-10-19T07:11:37.906Z,101297.88
2022-10-19T07:14:08.700Z,101297.88
2022-10-19T07:16:37.192Z,101299.69
2022-10-19T07:19:05.586Z,101290.44
2022-10-19T07:21:36.008Z,101293.28
2022-10-19T07:24:04.680Z,101299.56
2022-10-19T07:26:33.869Z,101293.50
2022-10-19T07:29:02.993Z,101294.59
2022-10-19T07:31:33.650Z,101289.22
2022-10-19T07:34:03.923Z,101293.38
2022-10-19T07:36:34.916Z,101296.13
2022-10-19T07:39:05.513Z,101291.47
2022-10-19T07:41:34.802Z,101291.00
2022-10-19T07:44:03.489Z,101278.81
2022-10-19T07:46:33.982Z,101282.97
2022-10-19T07:49:03.224Z,101272.94
2022-10-19T07:51:31.704Z,101273.22
2022-10-19T07:54:00.986Z,101265.34
2022-10-19T07:56:30.021Z,101273.00
2022-10-19T07:58:59.860Z,101267.59
2022-10-19T08:01:29.998Z,101269.66
2022-10-19T08:06:50.475Z,101263.59
2022-10-19T08:09:47.187Z,101255.50
2022-10-19T08:12:12.345Z,101251.72
2022-10-19T08:14:43.177Z,101261.41
2022-10-19T08:17:16.809Z,101254.91
2022-10-19T08:19:47.254Z,101247.03
2022-10-19T08:22:15.734Z,101245.88
2022-10-19T08:24:44.173Z,101243.72
2022-10-19T08:27:12.653Z,101244.16
2022-10-19T08:29:41.141Z,101245.19
2022-10-19T08:32:12.055Z,101243.00
2022-10-19T08:34:40.663Z,101246.66
2022-10-19T08:37:20.223Z,101239.81
2022-10-19T08:39:54.644Z,101225.88
2022-10-19T08:42:30.067Z,101224.63
2022-10-19T08:45:28.505Z,101221.00
2022-10-19T08:48:21.731Z,101219.97
2022-10-19T08:50:50.689Z,101217.47
2022-10-19T08:53:28.561Z,101224.31
2022-10-19T08:56:15.039Z,101224.09
2022-10-19T08:59:01.322Z,101223.28
2022-10-19T09:01:38.552Z,101226.50
2022-10-19T09:04:11.566Z,101219.63
2022-10-19T09:06:50.947Z,101221.25
2022-10-19T09:09:22.309Z,101219.19
2022-10-19T09:11:52.449Z,101216.13
2022-10-19T09:14:27.277Z,101210.28
2022-10-19T09:16:58.854Z,101217.59
2022-10-19T09:19:31.817Z,101217.59
2022-10-19T09:22:05.751Z,101209.94
2022-10-19T09:24:43.966Z,101212.00
2022-10-19T09:27:21.365Z,101211.41
2022-10-19T09:29:52.438Z,101207.75
2022-10-19T09:32:24.074Z,101201.94
2022-10-19T09:34:55.579Z,101191.66
2022-10-19T09:37:26.761Z,101187.22
2022-10-19T09:39:57.585Z,101187.66
2022-10-19T09:42:29.544Z,101188.69
2022-10-19T09:44:59.684Z,101183.44
2022-10-19T09:47:35.033Z,101188.13
2022-10-19T09:50:17.436Z,101183.66
2022-10-19T09:52:47.330Z,101189.28
2022-10-19T09:55:28.074Z,101187.44
2022-10-19T09:58:03.664Z,101185.03
2022-10-19T10:00:42.403Z,101186.88
2022-10-19T10:03:24.792Z,101177.97
2022-10-19T10:05:54.288Z,101179.56
2022-10-19T10:08:25.920Z,101183.34
2022-10-19T10:11:07.064Z,101188.13
2022-10-19T10:13:39.963Z,101186.09
2022-10-19T10:16:10.803Z,101194.53
2022-10-19T10:18:52.367Z,101193.28
2022-10-19T10:21:25.706Z,101187.81
2022-10-19T10:24:05.863Z,101187.81
2022-10-19T10:26:40.508Z,101190.25
2022-10-19T10:29:20.346Z,101179.94
2022-10-19T10:31:52.629Z,101180.72
2022-10-19T10:34:45.677Z,101189.22
2022-10-19T10:37:22.111Z,101176.09
2022-10-19T10:39:55.111Z,101169.00
2022-10-19T10:43:06.427Z,101169.44
2022-10-19T10:46:09.961Z,101164.63
2022-10-19T10:48:42.329Z,101167.03
2022-10-19T10:51:21.792Z,101157.34
2022-10-19T10:53:50.561Z,101159.53
2022-10-19T10:56:25.625Z,101162.16
2022-10-19T10:59:00.364Z,101154.84
2022-10-19T11:01:38.195Z,101152.81
2022-10-19T11:04:11.466Z,101151.53
2022-10-19T11:06:45.751Z,101151.88
2022-10-19T11:09:25.110Z,101164.59
2022-10-19T11:11:56.298Z,101156.47
2022-10-19T11:14:34.272Z,101156.25
2022-10-19T11:17:08.535Z,101145.75
2022-10-19T11:19:42.238Z,101134.22
2022-10-19T11:22:23.583Z,101135.81
2022-10-19T11:25:06.838Z,101147.13
2022-10-19T11:27:48.154Z,101135.59
2022-10-19T11:30:20.001Z,101144.84
2022-10-19T11:33:02.962Z,101136.97
2022-10-19T11:35:41.252Z,101138.56
2022-10-19T11:38:32.651Z,101141.41
2022-10-19T11:41:17.831Z,101150.31
2022-10-19T11:44:04.176Z,101142.91
2022-10-19T11:46:40.301Z,101132.84
2022-10-19T11:49:26.383Z,101129.66
2022-10-19T11:52:00.358Z,101131.91
2022-10-19T11:54:42.654Z,101127.69
2022-10-19T11:57:14.700Z,101134.41
2022-10-19T12:00:14.405Z,101123.34
2022-10-19T12:03:10.265Z,101119.13
2022-10-19T12:05:54.155Z,101111.81
2022-10-19T12:08:33.989Z,101117.63
2022-10-19T12:11:12.440Z,101127.13
2022-10-19T12:13:43.797Z,101126.09
2022-10-19T12:16:15.430Z,101123.59
2022-10-19T12:18:48.952Z,101123.38
2022-10-19T12:21:27.727Z,101122.56
2022-10-19T12:23:57.519Z,101110.25
2022-10-19T12:26:29.315Z,101123.72
2022-10-19T12:29:01.775Z,101121.88
2022-10-19T12:31:31.855Z,101119.84
2022-10-19T12:34:06.780Z,101118.56
2022-10-19T12:36:46.245Z,101121.78
2022-10-19T12:39:22.644Z,101132.03
2022-10-19T12:41:58.449Z,101122.56
2022-10-19T12:44:58.739Z,101121.19
2022-10-19T12:47:27.981Z,101121.19
2022-10-19T12:49:56.892Z,101119.94
2022-10-19T12:52:42.210Z,101123.81
2022-10-19T12:55:27.042Z,101124.63
2022-10-19T12:58:02.347Z,101126.44
2022-10-19T13:00:33.722Z,101141.41
2022-10-19T13:03:08.806Z,101146.91
2022-10-19T13:05:37.986Z,101156.81
2022-10-19T13:08:10.801Z,101159.19
2022-10-19T13:10:42.417Z,101158.78
2022-10-19T13:13:46.438Z,101154.31
2022-10-19T13:16:54.385Z,101157.97
2022-10-19T13:19:23.852Z,101166.03
2022-10-19T13:22:14.578Z,101160.78
2022-10-19T13:24:44.481Z,101170.38
2022-10-19T13:27:43.294Z,101179.50
2022-10-19T13:30:45.059Z,101173.09
2022-10-19T13:33:49.116Z,101176.72
2022-10-19T13:36:18.796Z,101173.09
2022-10-19T13:38:49.583Z,101169.00
2022-10-19T13:41:22.806Z,101169.56
2022-10-19T13:44:04.508Z,101174.03
2022-10-19T13:46:59.044Z,101160.91
2022-10-19T13:50:16.211Z,101159.88
2022-10-19T13:53:06.991Z,101170.16
2022-10-19T13:55:59.655Z,101178.59
2022-10-19T13:59:15.710Z,101179.19
2022-10-19T14:02:14.461Z,101172.09
2022-10-19T14:04:52.403Z,101182.41
2022-10-19T14:07:29.265Z,101179.31
2022-10-19T14:10:09.260Z,101187.19
2022-10-19T14:12:43.495Z,101189.81
2022-10-19T14:15:30.917Z,101191.41
2022-10-19T14:18:05.788Z,101204.31
2022-10-19T14:20:37.092Z,101205.13
2022-10-19T14:23:20.303Z,101208.78
2022-10-19T14:25:53.888Z,101206.16
2022-10-19T14:28:24.881Z,101207.75
2022-10-19T14:30:58.416Z,101211.19
2022-10-19T14:33:29.712Z,101206.72
2022-10-19T14:35:58.484Z,101202.72
2022-10-19T14:38:33.147Z,101204.41
2022-10-19T14:41:01.786Z,101198.00
2022-10-19T14:43:32.396Z,101191.97
2022-10-19T14:46:16.013Z,101195.03
2022-10-19T14:48:48.637Z,101192.19
2022-10-19T14:51:26.841Z,101190.59
2022-10-19T14:53:58.645Z,101187.97
2022-10-19T14:56:34.885Z,101186.94
2022-10-19T14:59:07.404Z,101179.63
2022-10-19T15:01:37.319Z,101181.81
2022-10-19T15:04:07.277Z,101179.56
2022-10-19T15:06:42.593Z,101184.56
2022-10-19T15:09:37.056Z,101177.72
2022-10-19T15:12:18.109Z,101180.34
2022-10-19T15:14:47.491Z,101166.41
2022-10-19T15:17:30.973Z,101165.63
2022-10-19T15:20:01.805Z,101168.00
2022-10-19T15:22:40.952Z,101164.59
2022-10-19T15:25:37.234Z,101167.44
2022-10-19T15:28:34.940Z,101166.03
2022-10-19T15:31:08.036Z,101167.66
2022-10-19T15:33:45.787Z,101177.16
2022-10-19T15:36:18.589Z,101178.16
2022-10-19T15:38:49.123Z,101181.59
2022-10-19T15:41:21.013Z,101174.94
2022-10-19T15:43:54.117Z,101173.34
2022-10-19T15:46:32.463Z,101175.19
2022-10-19T15:49:04.587Z,101180.66
2022-10-19T15:51:42.128Z,101178.03
2022-10-19T15:54:10.838Z,101184.31
2022-10-19T15:56:41.132Z,101184.88
2022-10-19T15:59:14.870Z,101184.88
2022-10-19T16:01:44.085Z,101199.38
2022-10-19T16:04:12.991Z,101190.28
2022-10-19T16:06:44.989Z,101188.66
2022-10-19T16:09:20.184Z,101192.31
2022-10-19T16:11:49.232Z,101202.59
2022-10-19T16:16:51.490Z,101193.91
2022-10-19T16:19:19.992Z,101198.97
2022-10-19T16:21:50.509Z,101207.25
2022-10-19T16:24:19.066Z,101205.88
2022-10-19T16:26:47.703Z,101208.50
2022-10-19T16:29:16.059Z,101205.09
2022-10-19T16:31:44.606Z,101199.84
2022-10-19T16:34:13.187Z,101194.00
2022-10-19T16:36:41.718Z,101185.56
2022-10-19T16:39:11.772Z,101190.81
2022-10-19T16:41:40.640Z,101192.88
2022-10-19T16:44:12.801Z,101184.59
2022-10-19T16:46:41.602Z,101182.78
2022-10-19T16:49:10.074Z,101180.38
2022-10-19T16:51:39.715Z,101188.72
2022-10-19T16:54:10.942Z,101193.50
2022-10-19T16:56:44.829Z,101191.22
2022-10-19T16:59:15.890Z,101202.13
2022-10-19T17:01:45.676Z,101201.09
2022-10-19T17:04:17.377Z,101207.59
2022-10-19T17:06:46.264Z,101203.38
2022-10-19T17:09:40.395Z,101209.41
2022-10-19T17:12:05.914Z,101204.16
2022-10-19T17:14:35.176Z,101210.78
2022-10-19T17:17:03.478Z,101204.59
2022-10-19T17:19:32.045Z,101200.84
2022-10-19T17:22:02.082Z,101203.41
2022-10-19T17:24:31.180Z,101200.91
2022-10-19T17:27:03.272Z,101202.50
2022-10-19T17:29:33.269Z,101201.25
2022-10-19T17:32:01.994Z,101207.28
2022-10-19T17:34:30.819Z,101206.28
2022-10-19T17:36:59.407Z,101208.09
2022-10-19T17:39:29.954Z,101207.88
2022-10-19T17:42:02.202Z,101200.56
2022-10-19T17:44:32.776Z,101204.00
2022-10-19T17:47:02.226Z,101198.97
2022-10-19T17:49:30.957Z,101208.66
2022-10-19T17:51:59.871Z,101210.50
2022-10-19T17:54:28.655Z,101206.28
2022-10-19T17:56:57.255Z,101184.47
2022-10-19T17:59:30.526Z,101188.13
2022-10-19T18:02:07.628Z,101188.13
2022-10-19T18:07:09.765Z,101199.41
2022-10-19T18:09:38.246Z,101211.28
2022-10-19T18:12:08.752Z,101214.94
2022-10-19T18:14:37.332Z,101221.22
2022-10-19T18:17:07.722Z,101215.75
2022-10-19T18:19:36.222Z,101221.00
2022-10-19T18:22:04.994Z,101224.31
2022-10-19T18:24:34.769Z,101218.47
2022-10-19T18:27:03.386Z,101222.94
2022-10-19T18:29:31.924Z,101215.97
2022-10-19T18:32:01.744Z,101220.19
2022-10-19T18:34:31.788Z,101206.84
2022-10-19T18:37:00.584Z,101200.78
2022-10-19T18:39:29.078Z,101197.94
2022-10-19T18:41:57.706Z,101205.81
2022-10-19T18:44:27.889Z,101214.72
2022-10-19T18:46:57.957Z,101209.13
2022-10-19T18:49:26.147Z,101211.28
2022-10-19T18:51:56.307Z,101217.69
2022-10-19T18:54:26.482Z,101216.66
2022-10-19T18:56:55.528Z,101220.53
2022-10-19T18:59:24.495Z,101218.72
2022-10-19T19:01:53.047Z,101220.75
2022-10-19T19:04:21.530Z,101222.59
2022-10-19T19:06:50.188Z,101216.53
2022-10-19T19:09:21.281Z,101224.84
2022-10-19T19:11:50.239Z,101222.22
2022-10-19T19:14:21.674Z,101221.63
2022-10-19T19:16:50.302Z,101226.31
2022-10-19T19:19:19.722Z,101237.34
2022-10-19T19:21:49.982Z,101240.78
2022-10-19T19:24:21.934Z,101239.16
2022-10-19T19:26:52.956Z,101234.94
2022-10-19T19:29:22.432Z,101249.88
2022-10-19T19:31:51.224Z,101246.69
2022-10-19T19:34:19.754Z,101248.75
2022-10-19T19:36:48.908Z,101246.78
2022-10-19T19:39:21.254Z,101246.34
2022-10-19T19:41:50.456Z,101245.75
2022-10-19T19:44:20.129Z,101249.75
2022-10-19T19:46:48.667Z,101245.53
2022-10-19T19:49:17.197Z,101251.59
2022-10-19T19:51:45.588Z,101248.16
2022-10-19T19:54:14.063Z,101247.94
2022-10-19T19:56:43.922Z,101243.72
2022-10-19T19:59:13.912Z,101243.50
2022-10-19T20:01:43.057Z,101247.38
2022-10-19T20:04:11.519Z,101256.50
2022-10-19T20:06:41.058Z,101255.69
2022-10-19T20:09:10.857Z,101264.38
2022-10-19T20:11:42.317Z,101257.75
2022-10-19T20:14:13.911Z,101258.97
2022-10-19T20:16:42.512Z,101260.81
2022-10-19T20:19:13.176Z,101265.03
2022-10-19T20:21:42.292Z,101263.44
2022-10-19T20:24:11.402Z,101260.22
2022-10-19T20:26:40.048Z,101253.38
2022-10-19T20:29:08.692Z,101260.69
2022-10-19T20:31:40.648Z,101260.69
2022-10-19T20:34:11.190Z,101263.53
2022-10-19T20:36:39.990Z,101258.50
2022-10-19T20:39:08.505Z,101256.09
2022-10-19T20:41:37.258Z,101265.22
2022-10-19T20:44:05.997Z,101270.09
2022-10-19T20:46:34.427Z,101267.47
2022-10-19T20:49:04.884Z,101272.94
2022-10-19T20:51:36.684Z,101266.09
2022-10-19T20:54:07.194Z,101280.25
2022-10-19T20:56:37.647Z,101275.22
2022-10-19T20:59:07.934Z,101271.00
2022-10-19T21:01:37.854Z,101269.63
2022-10-19T21:04:09.311Z,101272.47
2022-10-19T21:06:41.301Z,101279.75
2022-10-19T21:09:10.807Z,101274.28
2022-10-19T21:11:41.458Z,101278.72
2022-10-19T21:14:13.163Z,101276.91
2022-10-19T21:16:42.370Z,101278.94
2022-10-19T21:19:13.825Z,101270.75
2022-10-19T21:21:44.472Z,101270.56
2022-10-19T21:24:14.616Z,101271.97
2022-10-19T21:26:43.934Z,101270.56
2022-10-19T21:29:14.271Z,101264.69
2022-10-19T21:31:47.878Z,101261.88
2022-10-19T21:34:21.163Z,101262.69
2022-10-19T21:36:49.977Z,101268.91
2022-10-19T21:39:18.648Z,101263.91
2022-10-19T21:41:47.755Z,101254.66
2022-10-19T21:44:18.381Z,101260.91
2022-10-19T21:46:49.218Z,101269.22
2022-10-19T21:49:19.369Z,101267.63
2022-10-19T21:51:49.940Z,101272.88
2022-10-19T21:54:21.480Z,101266.81
2022-10-19T21:56:50.360Z,101264.19
2022-10-19T21:59:19.632Z,101271.25
2022-10-19T22:01:48.346Z,101271.47
2022-10-19T22:04:19.433Z,101262.81
2022-10-19T22:06:48.294Z,101262.59
2022-10-19T22:09:19.283Z,101265.22
2022-10-19T22:11:48.496Z,101254.16
2022-10-19T22:14:17.327Z,101253.06
2022-10-19T22:16:45.972Z,101253.66
2022-10-19T22:19:14.579Z,101245.56
2022-10-19T22:21:44.566Z,101254.44
2022-10-19T22:24:16.129Z,101252.63
2022-10-19T22:26:46.438Z,101252.84
2022-10-19T22:29:14.884Z,101258.31
2022-10-19T22:31:43.673Z,101256.69
2022-10-19T22:34:15.052Z,101259.91
2022-10-19T22:36:45.323Z,101265.38
2022-10-19T22:39:14.994Z,101254.31
2022-10-19T22:41:43.408Z,101268.22
2022-10-19T22:44:11.953Z,101265.81
2022-10-19T22:46:40.316Z,101272.06
2022-10-19T22:51:42.567Z,101269.22
2022-10-19T22:54:12.404Z,101274.69
2022-10-19T22:56:41.292Z,101273.91
2022-10-19T22:59:10.435Z,101283.16
2022-10-19T23:01:39.462Z,101286.78
2022-10-19T23:04:07.739Z,101279.66
2022-10-19T23:06:36.236Z,101272.16
2022-10-19T23:09:05.254Z,101285.03
2022-10-19T23:11:35.164Z,101271.13
2022-10-19T23:14:03.532Z,101279.00
2022-10-19T23:16:32.147Z,101279.22
2022-10-19T23:19:00.589Z,101280.81
2022-10-19T23:21:29.055Z,101271.94
2022-10-19T23:23:57.448Z,101274.56
2022-10-19T23:26:26.253Z,101277.16
2022-10-19T23:28:56.114Z,101279.78
2022-10-19T23:31:26.898Z,101279.78
2022-10-19T23:33:55.978Z,101277.97
2022-10-19T23:36:27.076Z,101273.53
2022-10-19T23:38:56.758Z,101277.97
2022-10-19T23:41:25.491Z,101286.41
2022-10-19T23:43:55.532Z,101288.25
2022-10-19T23:46:24.072Z,101290.06
2022-10-19T23:48:52.510Z,101293.69
2022-10-19T23:51:22.544Z,101290.50
2022-10-19T23:53:53.001Z,101303.59
2022-10-19T23:56:23.483Z,101300.19
2022-10-19T23:58:52.061Z,101305.66
